createdAt,value
2018-12-19T00:00:29.878Z,5.80
2018-12-19T00:01:12.001Z,6.62
2018-12-19T00:01:51.728Z,6.35
2018-12-19T00:02:31.739Z,7.15
2018-12-19T00:03:13.788Z,5.90
2018-12-19T00:03:53.184Z,6.75
2018-12-19T00:04:32.140Z,7.03
2018-12-19T00:05:12.648Z,6.15
2018-12-19T00:05:51.184Z,6.33
2018-12-19T00:06:29.211Z,6.85
2018-12-19T00:07:08.056Z,6.30
2018-12-19T00:07:46.549Z,7.00
2018-12-19T00:08:25.067Z,5.67
2018-12-19T00:09:03.767Z,6.37
2018-12-19T00:09:46.627Z,6.28
2018-12-19T00:10:25.634Z,6.10
2018-12-19T00:11:05.108Z,6.30
2018-12-19T00:11:43.900Z,5.75
2018-12-19T00:12:22.571Z,6.40
2018-12-19T00:13:00.980Z,6.80
2018-12-19T00:13:39.683Z,6.15
2018-12-19T00:14:18.381Z,6.62
2018-12-19T00:14:57.882Z,5.78
2018-12-19T00:15:43.275Z,6.03
2018-12-19T00:16:22.863Z,6.30
2018-12-19T00:17:02.100Z,5.90
2018-12-19T00:17:41.668Z,5.62
2018-12-19T00:18:20.656Z,6.42
2018-12-19T00:18:59.241Z,5.97
2018-12-19T00:19:40.809Z,5.85
2018-12-19T00:20:19.327Z,5.55
2018-12-19T00:20:58.220Z,6.37
2018-12-19T00:21:36.892Z,5.60
2018-12-19T00:22:15.884Z,6.05
2018-12-19T00:22:54.688Z,6.05
2018-12-19T00:23:34.611Z,5.67
2018-12-19T00:24:14.173Z,6.35
2018-12-19T00:24:53.684Z,5.85
2018-12-19T00:25:32.125Z,6.20
2018-12-19T00:26:13.899Z,5.80
2018-12-19T00:26:52.374Z,5.92
2018-12-19T00:27:31.312Z,6.60
2018-12-19T00:28:13.930Z,6.97
2018-12-19T00:28:52.672Z,7.10
2018-12-19T00:29:31.500Z,6.72
2018-12-19T00:30:16.802Z,7.00
2018-12-19T00:30:55.211Z,6.97
2018-12-19T00:31:34.639Z,6.60
2018-12-19T00:32:13.542Z,7.85
2018-12-19T00:32:52.735Z,7.00
2018-12-19T00:33:30.807Z,6.90
2018-12-19T00:34:13.235Z,6.30
2018-12-19T00:34:54.328Z,6.47
2018-12-19T00:35:32.763Z,6.90
2018-12-19T00:36:11.316Z,7.22
2018-12-19T00:36:50.942Z,6.30
2018-12-19T00:37:29.454Z,7.42
2018-12-19T00:38:08.113Z,7.83
2018-12-19T00:38:47.756Z,8.45
2018-12-19T00:39:26.590Z,8.70
2018-12-19T00:40:04.693Z,8.38
2018-12-19T00:40:45.213Z,10.03
2018-12-19T00:41:24.991Z,8.45
2018-12-19T00:42:03.783Z,9.65
2018-12-19T00:42:43.379Z,9.53
2018-12-19T00:43:25.979Z,9.23
2018-12-19T00:44:05.020Z,9.98
2018-12-19T00:44:44.036Z,9.50
2018-12-19T00:45:23.401Z,9.80
2018-12-19T00:46:02.992Z,8.95
2018-12-19T00:46:43.095Z,9.50
2018-12-19T00:47:22.489Z,9.80
2018-12-19T00:48:01.305Z,9.75
2018-12-19T00:48:40.234Z,9.40
2018-12-19T00:49:18.907Z,10.30
2018-12-19T00:50:00.041Z,9.80
2018-12-19T00:50:38.927Z,9.97
2018-12-19T00:51:17.772Z,9.18
2018-12-19T00:51:57.070Z,9.58
2018-12-19T00:52:37.175Z,9.10
2018-12-19T00:53:15.764Z,9.40
2018-12-19T00:53:54.106Z,9.20
2018-12-19T00:54:33.315Z,9.90
2018-12-19T00:55:11.708Z,9.43
2018-12-19T00:55:52.020Z,8.90
2018-12-19T00:56:30.266Z,9.98
2018-12-19T00:57:10.630Z,8.80
2018-12-19T00:57:49.020Z,9.15
2018-12-19T00:58:28.114Z,8.80
2018-12-19T00:59:07.544Z,9.60
2018-12-19T00:59:45.992Z,9.40
2018-12-19T01:00:25.096Z,8.90
2018-12-19T01:01:13.525Z,8.98
2018-12-19T01:01:56.118Z,9.03
2018-12-19T01:02:34.971Z,8.50
2018-12-19T01:03:18.240Z,8.85
2018-12-19T01:03:58.813Z,9.45
2018-12-19T01:04:37.496Z,9.63
2018-12-19T01:05:16.247Z,9.38
2018-12-19T01:05:55.111Z,8.50
2018-12-19T01:06:33.368Z,8.95
2018-12-19T01:07:12.123Z,9.90
2018-12-19T01:07:50.760Z,9.30
2018-12-19T01:08:29.597Z,10.05
2018-12-19T01:09:09.145Z,9.33
2018-12-19T01:09:51.920Z,8.93
2018-12-19T01:10:30.139Z,9.68
2018-12-19T01:11:09.118Z,9.48
2018-12-19T01:11:47.731Z,8.93
2018-12-19T01:12:27.875Z,9.55
2018-12-19T01:13:07.002Z,9.58
2018-12-19T01:13:46.524Z,9.43
2018-12-19T01:14:25.685Z,9.08
2018-12-19T01:15:04.275Z,8.88
2018-12-19T01:15:43.088Z,8.90
2018-12-19T01:16:24.270Z,8.83
2018-12-19T01:17:02.685Z,8.15
2018-12-19T01:17:41.343Z,8.73
2018-12-19T01:18:22.694Z,8.85
2018-12-19T01:19:05.059Z,8.18
2018-12-19T01:19:44.463Z,8.93
2018-12-19T01:20:23.136Z,8.95
2018-12-19T01:21:03.914Z,8.50
2018-12-19T01:21:42.488Z,8.85
2018-12-19T01:22:20.705Z,8.30
2018-12-19T01:23:02.368Z,8.33
2018-12-19T01:23:41.072Z,8.33
2018-12-19T01:24:19.969Z,9.00
2018-12-19T01:24:59.670Z,9.78
2018-12-19T01:25:38.346Z,8.58
2018-12-19T01:26:16.732Z,9.30
2018-12-19T01:26:55.483Z,8.95
2018-12-19T01:27:34.024Z,9.55
2018-12-19T01:28:12.608Z,8.88
2018-12-19T01:28:52.290Z,10.23
2018-12-19T01:29:32.520Z,10.10
2018-12-19T01:30:12.170Z,8.95
2018-12-19T01:30:52.585Z,9.93
2018-12-19T01:31:35.322Z,10.50
2018-12-19T01:32:15.012Z,8.33
2018-12-19T01:32:54.100Z,8.78
2018-12-19T01:33:37.072Z,7.80
2018-12-19T01:34:15.468Z,6.58
2018-12-19T01:34:54.174Z,7.42
2018-12-19T01:35:34.982Z,6.75
2018-12-19T01:36:14.160Z,6.12
2018-12-19T01:36:52.759Z,5.22
2018-12-19T01:37:31.476Z,5.85
2018-12-19T01:38:09.952Z,6.58
2018-12-19T01:38:48.684Z,5.80
2018-12-19T01:39:28.092Z,5.42
2018-12-19T01:40:10.543Z,6.75
2018-12-19T01:40:48.740Z,5.80
2018-12-19T01:41:29.978Z,6.20
2018-12-19T01:42:08.860Z,5.65
2018-12-19T01:42:47.632Z,6.47
2018-12-19T01:43:27.513Z,6.37
2018-12-19T01:44:06.206Z,5.30
2018-12-19T01:44:49.150Z,4.92
2018-12-19T01:45:28.496Z,5.40
2018-12-19T01:46:08.075Z,5.50
2018-12-19T01:46:47.041Z,6.67
2018-12-19T01:47:25.759Z,5.95
2018-12-19T01:48:04.644Z,4.80
2018-12-19T01:48:43.264Z,4.97
2018-12-19T01:49:21.892Z,5.83
2018-12-19T01:50:01.879Z,5.95
2018-12-19T01:50:41.553Z,5.57
2018-12-19T01:51:20.212Z,6.03
2018-12-19T01:51:58.437Z,6.20
2018-12-19T01:52:40.564Z,6.10
2018-12-19T01:53:18.840Z,5.37
2018-12-19T01:53:59.499Z,6.17
2018-12-19T01:54:38.440Z,6.07
2018-12-19T01:55:16.892Z,6.03
2018-12-19T01:55:55.747Z,5.90
2018-12-19T01:56:39.073Z,6.15
2018-12-19T01:57:17.437Z,5.78
2018-12-19T01:57:55.573Z,5.90
2018-12-19T01:58:34.472Z,4.83
2018-12-19T01:59:16.424Z,4.53
2018-12-19T01:59:54.987Z,4.78
2018-12-19T02:00:35.204Z,4.53
2018-12-19T02:01:14.530Z,4.35
2018-12-19T02:01:54.121Z,5.10
2018-12-19T02:02:33.355Z,4.95
2018-12-19T02:03:11.561Z,4.80
2018-12-19T02:03:50.752Z,4.20
2018-12-19T02:04:29.075Z,5.03
2018-12-19T02:05:12.892Z,5.00
2018-12-19T02:05:51.712Z,4.70
2018-12-19T02:06:31.012Z,4.62
2018-12-19T02:07:09.823Z,5.20
2018-12-19T02:07:48.352Z,5.17
2018-12-19T02:08:29.568Z,5.08
2018-12-19T02:09:09.154Z,5.30
2018-12-19T02:09:49.892Z,5.65
2018-12-19T02:10:28.019Z,4.60
2018-12-19T02:11:11.232Z,5.37
2018-12-19T02:11:49.782Z,5.00
2018-12-19T02:12:28.861Z,5.28
2018-12-19T02:13:07.446Z,5.10
2018-12-19T02:13:49.519Z,4.72
2018-12-19T02:14:28.367Z,5.65
2018-12-19T02:15:08.413Z,4.10
2018-12-19T02:15:46.442Z,4.58
2018-12-19T02:16:26.712Z,5.22
2018-12-19T02:17:05.813Z,5.40
2018-12-19T02:17:46.816Z,4.60
2018-12-19T02:18:25.307Z,4.53
2018-12-19T02:19:03.891Z,4.60
2018-12-19T02:19:43.548Z,4.83
2018-12-19T02:20:22.120Z,4.55
2018-12-19T02:21:01.412Z,4.85
2018-12-19T02:21:40.810Z,5.03
2018-12-19T02:22:19.280Z,4.75
2018-12-19T02:22:58.927Z,5.40
2018-12-19T02:23:37.891Z,5.00
2018-12-19T02:24:19.213Z,4.50
2018-12-19T02:24:58.178Z,4.55
2018-12-19T02:25:37.161Z,4.33
2018-12-19T02:26:17.124Z,4.97
2018-12-19T02:26:55.907Z,4.30
2018-12-19T02:27:34.534Z,4.90
2018-12-19T02:28:13.347Z,4.78
2018-12-19T02:28:52.856Z,4.55
2018-12-19T02:29:31.563Z,4.80
2018-12-19T02:30:10.752Z,4.50
2018-12-19T02:30:49.634Z,4.22
2018-12-19T02:31:28.417Z,4.40
2018-12-19T02:32:11.440Z,4.33
2018-12-19T02:32:54.023Z,5.08
2018-12-19T02:33:35.075Z,4.62
2018-12-19T02:34:13.687Z,4.60
2018-12-19T02:34:52.459Z,4.33
2018-12-19T02:35:31.359Z,4.40
2018-12-19T02:36:10.202Z,4.97
2018-12-19T02:36:49.118Z,3.83
2018-12-19T02:37:31.541Z,5.03
2018-12-19T02:38:10.352Z,4.83
2018-12-19T02:38:49.702Z,4.90
2018-12-19T02:39:28.100Z,4.50
2018-12-19T02:40:11.007Z,4.25
2018-12-19T02:40:49.724Z,4.10
2018-12-19T02:41:29.105Z,5.17
2018-12-19T02:42:11.627Z,4.90
2018-12-19T02:42:51.346Z,4.60
2018-12-19T02:43:31.445Z,5.00
2018-12-19T02:44:11.803Z,5.15
2018-12-19T02:44:50.079Z,4.70
2018-12-19T02:45:28.872Z,4.55
2018-12-19T02:46:07.431Z,4.60
2018-12-19T02:46:45.862Z,4.90
2018-12-19T02:47:24.632Z,4.60
2018-12-19T02:48:03.224Z,4.72
2018-12-19T02:48:46.283Z,4.77
2018-12-19T02:49:25.211Z,4.97
2018-12-19T02:50:04.987Z,4.72
2018-12-19T02:50:45.110Z,4.93
2018-12-19T02:51:24.416Z,4.70
2018-12-19T02:52:04.336Z,4.80
2018-12-19T02:52:43.090Z,4.87
2018-12-19T02:53:21.930Z,4.70
2018-12-19T02:54:02.297Z,5.20
2018-12-19T02:54:40.943Z,5.00
2018-12-19T02:55:21.590Z,4.92
2018-12-19T02:56:00.360Z,4.72
2018-12-19T02:56:40.302Z,4.92
2018-12-19T02:57:22.117Z,4.28
2018-12-19T02:58:01.161Z,4.53
2018-12-19T02:58:40.695Z,5.60
2018-12-19T02:59:20.348Z,4.92
2018-12-19T02:59:59.311Z,4.60
2018-12-19T03:00:38.625Z,4.27
2018-12-19T03:01:19.022Z,5.20
2018-12-19T03:01:57.853Z,4.83
2018-12-19T03:02:36.687Z,4.90
2018-12-19T03:03:19.660Z,5.05
2018-12-19T03:03:58.701Z,4.90
2018-12-19T03:04:38.656Z,4.80
2018-12-19T03:05:18.475Z,4.50
2018-12-19T03:05:57.362Z,5.10
2018-12-19T03:06:36.256Z,4.80
2018-12-19T03:07:15.548Z,4.95
2018-12-19T03:07:53.987Z,4.05
2018-12-19T03:08:36.326Z,5.10
2018-12-19T03:09:15.556Z,5.20
2018-12-19T03:09:59.187Z,4.70
2018-12-19T03:10:40.970Z,5.17
2018-12-19T03:11:19.702Z,4.35
2018-12-19T03:11:58.238Z,4.90
2018-12-19T03:12:39.859Z,4.60
2018-12-19T03:13:18.247Z,5.45
2018-12-19T03:13:57.707Z,5.22
2018-12-19T03:14:38.962Z,4.83
2018-12-19T03:15:17.734Z,4.83
2018-12-19T03:15:56.205Z,4.62
2018-12-19T03:16:34.886Z,5.30
2018-12-19T03:17:16.242Z,4.30
2018-12-19T03:18:00.645Z,4.50
2018-12-19T03:18:39.334Z,4.90
2018-12-19T03:19:18.264Z,5.00
2018-12-19T03:19:59.693Z,4.35
2018-12-19T03:20:37.963Z,4.60
2018-12-19T03:21:16.503Z,4.37
2018-12-19T03:21:55.034Z,4.37
2018-12-19T03:22:37.998Z,3.75
2018-12-19T03:23:17.636Z,4.60
2018-12-19T03:23:55.930Z,4.30
2018-12-19T03:24:34.424Z,4.40
2018-12-19T03:25:12.991Z,4.10
2018-12-19T03:25:53.308Z,5.00
2018-12-19T03:26:38.074Z,4.55
2018-12-19T03:27:16.483Z,4.58
2018-12-19T03:27:54.928Z,5.00
2018-12-19T03:28:33.583Z,4.85
2018-12-19T03:29:12.400Z,4.78
2018-12-19T03:29:51.103Z,5.30
2018-12-19T03:30:29.919Z,5.58
2018-12-19T03:31:08.830Z,4.55
2018-12-19T03:31:47.401Z,5.00
2018-12-19T03:32:26.352Z,5.28
2018-12-19T03:33:04.809Z,4.20
2018-12-19T03:33:44.249Z,4.85
2018-12-19T03:34:22.902Z,4.50
2018-12-19T03:35:03.507Z,5.30
2018-12-19T03:35:42.044Z,5.60
2018-12-19T03:36:20.640Z,5.64
2018-12-19T03:37:03.607Z,5.42
2018-12-19T03:37:43.550Z,4.83
2018-12-19T03:38:26.422Z,4.80
2018-12-19T03:39:05.387Z,4.90
2018-12-19T03:39:50.289Z,4.78
2018-12-19T03:40:25.666Z,5.08
2018-12-19T03:41:04.249Z,5.10
2018-12-19T03:41:45.636Z,4.80
2018-12-19T03:42:26.346Z,4.47
2018-12-19T03:43:04.531Z,4.67
2018-12-19T03:43:42.932Z,4.95
2018-12-19T03:44:24.832Z,4.67
2018-12-19T03:45:03.124Z,5.10
2018-12-19T03:45:41.585Z,4.80
2018-12-19T03:46:20.121Z,5.20
2018-12-19T03:46:58.764Z,4.60
2018-12-19T03:47:37.787Z,5.42
2018-12-19T03:48:20.923Z,5.40
2018-12-19T03:49:01.415Z,5.00
2018-12-19T03:49:42.077Z,5.28
2018-12-19T03:50:20.388Z,5.10
2018-12-19T03:50:59.836Z,5.12
2018-12-19T03:51:38.480Z,5.35
2018-12-19T03:52:16.776Z,5.92
2018-12-19T03:52:56.669Z,4.37
2018-12-19T03:53:35.912Z,5.03
2018-12-19T03:54:15.236Z,4.45
2018-12-19T03:54:53.609Z,4.90
2018-12-19T03:55:32.357Z,4.90
2018-12-19T03:56:12.377Z,4.58
2018-12-19T03:56:51.273Z,4.42
2018-12-19T03:57:30.958Z,5.00
2018-12-19T03:58:09.783Z,5.30
2018-12-19T03:58:48.974Z,4.78
2018-12-19T03:59:32.329Z,5.67
2018-12-19T04:00:13.981Z,4.60
2018-12-19T04:00:52.804Z,5.12
2018-12-19T04:01:31.362Z,4.80
2018-12-19T04:02:11.887Z,4.30
2018-12-19T04:02:50.148Z,4.42
2018-12-19T04:03:30.120Z,4.30
2018-12-19T04:04:09.424Z,4.35
2018-12-19T04:04:49.055Z,5.10
2018-12-19T04:05:27.813Z,5.50
2018-12-19T04:06:06.028Z,5.05
2018-12-19T04:06:54.183Z,4.87
2018-12-19T04:07:33.299Z,4.90
2018-12-19T04:08:12.352Z,5.25
2018-12-19T04:08:53.803Z,4.70
2018-12-19T04:09:32.330Z,4.58
2018-12-19T04:10:10.739Z,5.40
2018-12-19T04:10:53.692Z,5.15
2018-12-19T04:11:32.517Z,4.90
2018-12-19T04:12:11.147Z,4.92
2018-12-19T04:12:49.905Z,6.15
2018-12-19T04:13:29.679Z,5.40
2018-12-19T04:14:07.846Z,5.80
2018-12-19T04:14:49.064Z,5.83
2018-12-19T04:15:27.039Z,5.90
2018-12-19T04:16:05.577Z,5.70
2018-12-19T04:16:45.799Z,5.33
2018-12-19T04:17:24.368Z,5.55
2018-12-19T04:18:03.916Z,5.47
2018-12-19T04:18:42.616Z,5.53
2018-12-19T04:19:22.167Z,5.55
2018-12-19T04:20:00.969Z,4.72
2018-12-19T04:20:39.553Z,5.50
2018-12-19T04:21:19.493Z,5.20
2018-12-19T04:21:59.696Z,6.08
2018-12-19T04:22:38.476Z,4.97
2018-12-19T04:23:17.469Z,4.90
2018-12-19T04:23:55.763Z,5.05
2018-12-19T04:24:38.399Z,5.00
2018-12-19T04:25:16.823Z,5.58
2018-12-19T04:25:55.269Z,4.70
2018-12-19T04:26:35.164Z,4.87
2018-12-19T04:27:13.749Z,5.30
2018-12-19T04:27:53.420Z,5.15
2018-12-19T04:28:31.944Z,5.20
2018-12-19T04:29:14.207Z,4.90
2018-12-19T04:29:52.944Z,6.10
2018-12-19T04:30:31.748Z,5.45
2018-12-19T04:31:10.483Z,4.80
2018-12-19T04:31:49.887Z,5.60
2018-12-19T04:32:28.383Z,4.58
2018-12-19T04:33:11.528Z,5.45
2018-12-19T04:33:49.925Z,5.95
2018-12-19T04:34:29.257Z,5.35
2018-12-19T04:35:12.581Z,5.58
2018-12-19T04:35:53.546Z,5.00
2018-12-19T04:36:33.352Z,5.10
2018-12-19T04:37:13.219Z,5.40
2018-12-19T04:37:52.962Z,5.40
2018-12-19T04:38:32.447Z,5.67
2018-12-19T04:39:12.469Z,5.67
2018-12-19T04:39:53.061Z,5.05
2018-12-19T04:40:31.439Z,5.17
2018-12-19T04:41:10.354Z,5.40
2018-12-19T04:41:50.263Z,5.25
2018-12-19T04:42:29.104Z,5.20
2018-12-19T04:43:07.383Z,5.00
2018-12-19T04:43:52.571Z,5.03
2018-12-19T04:44:31.741Z,4.70
2018-12-19T04:45:10.696Z,5.55
2018-12-19T04:45:50.822Z,5.10
2018-12-19T04:46:31.455Z,4.40
2018-12-19T04:47:10.214Z,4.58
2018-12-19T04:47:48.808Z,5.40
2018-12-19T04:48:27.053Z,5.17
2018-12-19T04:49:05.168Z,4.80
2018-12-19T04:49:45.233Z,5.47
2018-12-19T04:50:28.111Z,5.30
2018-12-19T04:51:06.884Z,4.90
2018-12-19T04:51:45.431Z,4.87
2018-12-19T04:52:24.150Z,4.85
2018-12-19T04:53:02.476Z,5.65
2018-12-19T04:53:40.952Z,5.58
2018-12-19T04:54:19.509Z,5.28
2018-12-19T04:54:57.851Z,5.42
2018-12-19T04:55:36.597Z,5.17
2018-12-19T04:56:19.317Z,5.80
2018-12-19T04:56:59.223Z,6.10
2018-12-19T04:57:38.543Z,5.22
2018-12-19T04:58:17.229Z,5.97
2018-12-19T04:58:57.863Z,5.65
2018-12-19T04:59:36.511Z,5.03
2018-12-19T05:00:14.906Z,5.30
2018-12-19T05:00:57.340Z,4.85
2018-12-19T05:01:35.812Z,5.00
2018-12-19T05:02:14.951Z,5.35
2018-12-19T05:02:53.989Z,6.05
2018-12-19T05:03:33.937Z,5.62
2018-12-19T05:04:12.341Z,5.03
2018-12-19T05:04:52.451Z,5.70
2018-12-19T05:05:31.954Z,5.87
2018-12-19T05:06:10.375Z,5.78
2018-12-19T05:06:49.844Z,5.65
2018-12-19T05:07:33.790Z,5.90
2018-12-19T05:08:17.007Z,5.40
2018-12-19T05:08:55.863Z,5.50
2018-12-19T05:10:18.300Z,5.45
2018-12-19T05:10:56.943Z,4.85
2018-12-19T05:11:35.677Z,5.00
2018-12-19T05:12:14.344Z,5.67
2018-12-19T05:12:53.187Z,5.35
2018-12-19T05:13:31.367Z,5.40
2018-12-19T05:14:10.164Z,4.87
2018-12-19T05:14:48.845Z,5.33
2018-12-19T05:15:27.665Z,5.72
2018-12-19T05:16:06.464Z,5.70
2018-12-19T05:16:53.963Z,5.22
2018-12-19T05:17:32.489Z,6.00
2018-12-19T05:18:11.036Z,4.78
2018-12-19T05:18:50.276Z,5.05
2018-12-19T05:19:29.231Z,5.30
2018-12-19T05:20:08.032Z,5.25
2018-12-19T05:20:52.854Z,5.15
2018-12-19T05:21:31.460Z,5.47
2018-12-19T05:22:10.068Z,6.40
2018-12-19T05:22:48.586Z,6.17
2018-12-19T05:23:27.492Z,6.67
2018-12-19T05:24:06.359Z,6.62
2018-12-19T05:24:45.483Z,6.67
2018-12-19T05:25:24.108Z,6.62
2018-12-19T05:26:02.559Z,7.10
2018-12-19T05:26:40.916Z,7.15
2018-12-19T05:27:23.301Z,7.28
2018-12-19T05:28:02.912Z,6.60
2018-12-19T05:28:41.711Z,5.87
2018-12-19T05:29:22.501Z,6.50
2018-12-19T05:30:02.619Z,6.15
2018-12-19T05:30:40.959Z,6.53
2018-12-19T05:31:19.111Z,6.20
2018-12-19T05:31:58.732Z,6.08
2018-12-19T05:32:37.684Z,5.53
2018-12-19T05:33:18.991Z,5.95
2018-12-19T05:34:02.407Z,5.80
2018-12-19T05:34:41.415Z,6.03
2018-12-19T05:35:23.895Z,6.42
2018-12-19T05:36:02.561Z,5.65
2018-12-19T05:36:40.707Z,6.28
2018-12-19T05:37:19.516Z,5.40
2018-12-19T05:37:59.001Z,6.10
2018-12-19T05:38:37.508Z,6.77
2018-12-19T05:39:18.251Z,6.42
2018-12-19T05:39:58.347Z,5.95
2018-12-19T05:40:40.726Z,5.80
2018-12-19T05:41:20.450Z,6.35
2018-12-19T05:41:59.080Z,6.35
2018-12-19T05:42:39.215Z,5.80
2018-12-19T05:43:17.520Z,7.00
2018-12-19T05:43:56.486Z,6.22
2018-12-19T05:44:39.250Z,5.87
2018-12-19T05:45:18.112Z,6.30
2018-12-19T05:45:56.897Z,6.40
2018-12-19T05:46:35.712Z,6.80
2018-12-19T05:47:14.356Z,6.50
2018-12-19T05:47:52.957Z,6.37
2018-12-19T05:48:31.329Z,6.70
2018-12-19T05:49:09.840Z,6.50
2018-12-19T05:49:48.791Z,6.08
2018-12-19T05:50:30.209Z,6.80
2018-12-19T05:51:10.430Z,5.60
2018-12-19T05:51:48.961Z,6.78
2018-12-19T05:52:29.109Z,6.37
2018-12-19T05:53:08.115Z,6.20
2018-12-19T05:53:48.954Z,6.40
2018-12-19T05:54:27.494Z,6.17
2018-12-19T05:55:06.773Z,6.65
2018-12-19T05:55:51.272Z,6.22
2018-12-19T05:56:29.680Z,6.70
2018-12-19T05:57:08.057Z,6.92
2018-12-19T05:57:46.820Z,6.80
2018-12-19T05:58:26.005Z,6.05
2018-12-19T05:59:04.883Z,6.25
2018-12-19T05:59:43.973Z,6.35
2018-12-19T06:00:22.732Z,5.45
2018-12-19T06:01:01.364Z,6.72
2018-12-19T06:01:43.947Z,6.35
2018-12-19T06:02:22.846Z,6.65
2018-12-19T06:03:01.166Z,6.80
2018-12-19T06:03:40.987Z,7.03
2018-12-19T06:04:19.864Z,7.00
2018-12-19T06:05:00.198Z,6.97
2018-12-19T06:05:38.754Z,7.15
2018-12-19T06:06:17.504Z,6.50
2018-12-19T06:07:00.913Z,6.92
2018-12-19T06:07:40.125Z,6.37
2018-12-19T06:08:18.860Z,7.37
2018-12-19T06:08:57.182Z,6.90
2018-12-19T06:09:36.639Z,5.95
2018-12-19T06:10:15.681Z,6.22
2018-12-19T06:10:55.010Z,6.50
2018-12-19T06:11:36.360Z,7.28
2018-12-19T06:12:15.818Z,6.53
2018-12-19T06:12:56.054Z,6.55
2018-12-19T06:13:38.543Z,6.60
2018-12-19T06:14:21.924Z,7.22
2018-12-19T06:15:01.235Z,6.50
2018-12-19T06:15:40.816Z,6.62
2018-12-19T06:16:20.167Z,5.80
2018-12-19T06:16:59.525Z,6.95
2018-12-19T06:17:41.406Z,7.45
2018-12-19T06:18:21.346Z,6.30
2018-12-19T06:19:05.340Z,6.55
2018-12-19T06:19:45.455Z,7.05
2018-12-19T06:20:24.942Z,7.25
2018-12-19T06:21:08.330Z,6.65
2018-12-19T06:21:48.000Z,5.83
2018-12-19T06:22:27.116Z,5.85
2018-12-19T06:23:07.860Z,6.85
2018-12-19T06:23:50.324Z,6.35
2018-12-19T06:24:29.701Z,6.00
2018-12-19T06:25:09.029Z,6.12
2018-12-19T06:25:49.703Z,6.85
2018-12-19T06:26:33.227Z,6.42
2018-12-19T06:27:12.687Z,7.42
2018-12-19T06:27:52.848Z,6.08
2018-12-19T06:28:37.084Z,6.60
2018-12-19T06:29:15.762Z,5.95
2018-12-19T06:29:57.126Z,5.65
2018-12-19T06:30:38.290Z,6.40
2018-12-19T06:31:18.557Z,6.58
2018-12-19T06:31:58.140Z,7.35
2018-12-19T06:32:39.403Z,5.80
2018-12-19T06:33:21.778Z,6.08
2018-12-19T06:34:03.120Z,5.60
2018-12-19T06:35:26.313Z,5.72
2018-12-19T06:36:06.488Z,5.95
2018-12-19T06:36:45.968Z,6.30
2018-12-19T06:37:26.339Z,5.95
2018-12-19T06:38:07.528Z,6.37
2018-12-19T06:38:47.059Z,5.45
2018-12-19T06:39:26.647Z,5.90
2018-12-19T06:40:05.983Z,5.95
2018-12-19T06:40:45.252Z,6.05
2018-12-19T06:41:26.525Z,5.00
2018-12-19T06:42:06.516Z,6.20
2018-12-19T06:42:50.698Z,6.15
2018-12-19T06:43:33.770Z,5.62
2018-12-19T06:44:16.424Z,5.83
2018-12-19T06:44:57.235Z,6.00
2018-12-19T06:45:39.524Z,5.50
2018-12-19T06:46:18.740Z,5.50
2018-12-19T06:46:58.522Z,6.03
2018-12-19T06:47:39.098Z,5.42
2018-12-19T06:48:23.895Z,5.65
2018-12-19T06:49:03.388Z,4.90
2018-12-19T06:49:42.999Z,5.47
2018-12-19T06:50:22.350Z,5.70
2018-12-19T06:51:01.674Z,5.40
2018-12-19T06:51:41.252Z,5.65
2018-12-19T06:52:21.430Z,5.42
2018-12-19T06:53:02.658Z,4.85
2018-12-19T06:53:42.319Z,5.45
2018-12-19T06:54:21.875Z,5.55
2018-12-19T06:55:02.470Z,5.67
2018-12-19T06:55:41.827Z,5.80
2018-12-19T06:56:21.787Z,5.92
2018-12-19T06:57:01.194Z,5.33
2018-12-19T06:57:42.040Z,5.60
2018-12-19T06:58:23.620Z,5.60
2018-12-19T06:59:02.628Z,5.58
2018-12-19T06:59:45.588Z,5.55
2018-12-19T07:00:24.881Z,5.70
2018-12-19T07:01:03.801Z,6.00
2018-12-19T07:01:43.280Z,5.45
2018-12-19T07:02:25.424Z,5.78
2018-12-19T07:03:05.837Z,5.53
2018-12-19T07:03:45.094Z,5.50
2018-12-19T07:04:25.465Z,5.40
2018-12-19T07:05:11.831Z,5.60
2018-12-19T07:05:53.163Z,6.20
2018-12-19T07:06:34.191Z,5.80
2018-12-19T07:07:16.802Z,6.40
2018-12-19T07:07:55.932Z,5.62
2018-12-19T07:08:35.171Z,5.27
2018-12-19T07:09:15.655Z,5.60
2018-12-19T07:09:58.845Z,5.30
2018-12-19T07:10:39.196Z,6.60
2018-12-19T07:11:19.695Z,5.45
2018-12-19T07:11:58.991Z,5.65
2018-12-19T07:12:38.616Z,6.13
2018-12-19T07:13:17.945Z,6.00
2018-12-19T07:13:57.194Z,5.87
2018-12-19T07:14:40.176Z,6.43
2018-12-19T07:15:21.089Z,6.28
2018-12-19T07:16:01.492Z,5.65
2018-12-19T07:16:43.414Z,5.78
2018-12-19T07:17:25.344Z,6.33
2018-12-19T07:18:05.353Z,5.87
2018-12-19T07:18:48.844Z,5.93
2018-12-19T07:19:29.078Z,6.30
2018-12-19T07:20:08.011Z,5.90
2018-12-19T07:20:48.406Z,5.42
2018-12-19T07:21:27.546Z,6.08
2018-12-19T07:22:14.234Z,5.50
2018-12-19T07:22:57.294Z,5.55
2018-12-19T07:23:39.085Z,6.33
2018-12-19T07:24:18.878Z,5.75
2018-12-19T07:24:59.399Z,6.55
2018-12-19T07:25:40.762Z,5.50
2018-12-19T07:26:21.610Z,5.87
2018-12-19T07:27:01.541Z,6.28
2018-12-19T07:27:44.452Z,6.72
2018-12-19T07:28:24.939Z,6.30
2018-12-19T07:29:05.006Z,5.80
2018-12-19T07:29:47.524Z,6.70
2018-12-19T07:30:32.490Z,6.50
2018-12-19T07:31:12.566Z,6.15
2018-12-19T07:31:54.479Z,6.05
2018-12-19T07:32:36.085Z,7.00
2018-12-19T07:33:17.935Z,7.15
2018-12-19T07:34:06.784Z,6.28
2018-12-19T07:34:47.675Z,6.25
2018-12-19T07:35:28.407Z,6.40
2018-12-19T07:36:11.646Z,6.40
2018-12-19T07:36:52.257Z,5.95
2018-12-19T07:37:32.538Z,6.00
2018-12-19T07:38:12.779Z,5.90
2018-12-19T07:38:54.511Z,6.50
2018-12-19T07:40:19.503Z,6.10
2018-12-19T07:41:01.277Z,5.95
2018-12-19T07:41:41.770Z,6.53
2018-12-19T07:42:21.226Z,6.37
2018-12-19T07:43:00.989Z,5.87
2018-12-19T07:43:41.014Z,6.15
2018-12-19T07:44:21.536Z,5.85
2018-12-19T07:45:02.722Z,6.62
2018-12-19T07:45:41.936Z,7.05
2018-12-19T07:46:21.896Z,6.55
2018-12-19T07:47:01.272Z,6.25
2018-12-19T07:47:47.371Z,7.40
2018-12-19T07:48:26.631Z,6.62
2018-12-19T07:49:06.171Z,6.37
2018-12-19T07:49:46.699Z,6.97
2018-12-19T07:50:28.839Z,6.53
2018-12-19T07:51:17.508Z,6.42
2018-12-19T07:51:57.445Z,6.83
2018-12-19T07:52:37.981Z,6.80
2018-12-19T07:53:17.178Z,7.05
2018-12-19T07:53:58.463Z,7.10
2018-12-19T07:54:38.291Z,6.90
2018-12-19T07:55:19.227Z,6.62
2018-12-19T07:56:00.040Z,6.40
2018-12-19T07:56:42.202Z,7.63
2018-12-19T07:57:24.571Z,7.60
2018-12-19T07:58:06.661Z,7.80
2018-12-19T07:58:47.824Z,7.42
2018-12-19T07:59:32.166Z,7.78
2018-12-19T08:00:11.518Z,7.58
2018-12-19T08:00:51.847Z,7.53
2018-12-19T08:01:31.926Z,7.40
2018-12-19T08:02:12.926Z,8.00
2018-12-19T08:02:53.415Z,7.40
2018-12-19T08:03:34.296Z,8.43
2018-12-19T08:04:16.265Z,8.35
2018-12-19T08:04:56.607Z,7.75
2018-12-19T08:06:22.711Z,7.85
2018-12-19T08:07:05.093Z,7.40
2018-12-19T08:07:44.302Z,7.17
2018-12-19T08:08:26.449Z,7.50
2018-12-19T08:09:06.571Z,8.15
2018-12-19T08:09:48.811Z,7.45
2018-12-19T08:10:28.181Z,8.17
2018-12-19T08:11:07.568Z,8.30
2018-12-19T08:11:47.932Z,7.50
2018-12-19T08:12:27.132Z,8.10
2018-12-19T08:13:06.232Z,7.22
2018-12-19T08:13:45.470Z,7.67
2018-12-19T08:14:25.491Z,7.25
2018-12-19T08:15:07.051Z,7.75
2018-12-19T08:15:46.414Z,7.33
2018-12-19T08:16:30.772Z,7.35
2018-12-19T08:17:10.207Z,8.83
2018-12-19T08:17:49.655Z,8.03
2018-12-19T08:18:34.172Z,7.62
2018-12-19T08:19:13.161Z,7.72
2018-12-19T08:19:52.748Z,8.60
2018-12-19T08:20:32.204Z,7.62
2018-12-19T08:21:12.950Z,7.42
2018-12-19T08:21:52.276Z,7.00
2018-12-19T08:22:31.600Z,8.45
2018-12-19T08:23:11.218Z,8.53
2018-12-19T08:23:51.273Z,7.90
2018-12-19T08:24:31.515Z,7.83
2018-12-19T08:25:15.963Z,7.45
2018-12-19T08:25:55.188Z,7.80
2018-12-19T08:26:35.738Z,7.50
2018-12-19T08:27:17.084Z,7.20
2018-12-19T08:27:56.889Z,7.65
2018-12-19T08:28:38.334Z,7.37
2018-12-19T08:29:18.502Z,7.35
2018-12-19T08:30:00.940Z,7.47
2018-12-19T08:30:41.484Z,8.10
2018-12-19T08:31:22.004Z,7.85
2018-12-19T08:32:01.458Z,8.40
2018-12-19T08:32:40.722Z,7.13
2018-12-19T08:33:22.342Z,7.58
2018-12-19T08:34:02.034Z,7.78
2018-12-19T08:34:43.998Z,7.70
2018-12-19T08:35:23.835Z,8.00
2018-12-19T08:36:05.973Z,7.50
2018-12-19T08:36:46.444Z,7.97
2018-12-19T08:37:28.527Z,7.60
2018-12-19T08:38:07.969Z,7.08
2018-12-19T08:38:47.777Z,7.40
2018-12-19T08:39:36.015Z,6.72
2018-12-19T08:40:20.562Z,7.45
2018-12-19T08:40:59.903Z,7.10
2018-12-19T08:41:40.893Z,8.08
2018-12-19T08:42:20.297Z,8.25
2018-12-19T08:43:01.624Z,6.92
2018-12-19T08:43:45.715Z,6.90
2018-12-19T08:44:26.460Z,7.53
2018-12-19T08:45:08.318Z,7.05
2018-12-19T08:45:52.082Z,7.70
2018-12-19T08:46:36.082Z,6.67
2018-12-19T08:47:16.744Z,7.72
2018-12-19T08:47:58.741Z,7.25
2018-12-19T08:48:38.025Z,7.10
2018-12-19T08:49:17.645Z,6.45
2018-12-19T08:49:57.171Z,7.17
2018-12-19T08:50:39.840Z,6.87
2018-12-19T08:51:19.624Z,7.03
2018-12-19T08:52:00.531Z,6.70
2018-12-19T08:52:40.685Z,7.07
2018-12-19T08:53:21.863Z,7.28
2018-12-19T08:54:07.272Z,6.62
2018-12-19T08:54:46.728Z,6.42
2018-12-19T08:55:26.949Z,6.78